sensor_id;sensor_type;location;lat;lon;timestamp;temperature;humidity
50758;DHT22;36732;47.980;11.652;2023-08-06T00:00:23;19.40;67.60
50758;DHT22;36732;47.980;11.652;2023-08-06T00:02:49;19.40;67.60
50758;DHT22;36732;47.980;11.652;2023-08-06T00:05:16;19.40;67.60
50758;DHT22;36732;47.980;11.652;2023-08-06T00:07:47;19.40;67.70
50758;DHT22;36732;47.980;11.652;2023-08-06T00:10:13;19.40;67.60
50758;DHT22;36732;47.980;11.652;2023-08-06T00:12:38;19.40;67.60
50758;DHT22;36732;47.980;11.652;2023-08-06T00:15:05;19.40;67.60
50758;DHT22;36732;47.980;11.652;2023-08-06T00:17:31;19.40;67.60
50758;DHT22;36732;47.980;11.652;2023-08-06T00:19:56;19.40;67.40
50758;DHT22;36732;47.980;11.652;2023-08-06T00:22:22;19.40;67.40
50758;DHT22;36732;47.980;11.652;2023-08-06T00:24:48;19.40;67.30
50758;DHT22;36732;47.980;11.652;2023-08-06T00:27:13;19.40;67.20
50758;DHT22;36732;47.980;11.652;2023-08-06T00:29:39;19.40;67.20
50758;DHT22;36732;47.980;11.652;2023-08-06T00:32:05;19.40;67.20
50758;DHT22;36732;47.980;11.652;2023-08-06T00:34:31;19.40;67.10
50758;DHT22;36732;47.980;11.652;2023-08-06T00:36:56;19.40;67.00
50758;DHT22;36732;47.980;11.652;2023-08-06T00:39:22;19.40;67.10
50758;DHT22;36732;47.980;11.652;2023-08-06T00:41:48;19.40;67.00
50758;DHT22;36732;47.980;11.652;2023-08-06T00:44:14;19.40;67.00
50758;DHT22;36732;47.980;11.652;2023-08-06T00:46:39;19.40;67.00
50758;DHT22;36732;47.980;11.652;2023-08-06T00:49:05;19.40;66.90
50758;DHT22;36732;47.980;11.652;2023-08-06T00:51:32;19.40;66.80
50758;DHT22;36732;47.980;11.652;2023-08-06T00:53:57;19.40;66.90
50758;DHT22;36732;47.980;11.652;2023-08-06T00:56:24;19.40;66.80
50758;DHT22;36732;47.980;11.652;2023-08-06T00:58:51;19.40;66.90
50758;DHT22;36732;47.980;11.652;2023-08-06T01:01:16;19.40;66.80
50758;DHT22;36732;47.980;11.652;2023-08-06T01:03:42;19.40;66.80
50758;DHT22;36732;47.980;11.652;2023-08-06T01:06:08;19.40;66.80
50758;DHT22;36732;47.980;11.652;2023-08-06T01:08:56;19.30;66.70
50758;DHT22;36732;47.980;11.652;2023-08-06T01:11:37;19.30;66.70
50758;DHT22;36732;47.980;11.652;2023-08-06T01:14:18;19.30;66.60
50758;DHT22;36732;47.980;11.652;2023-08-06T01:16:50;19.30;66.60
50758;DHT22;36732;47.980;11.652;2023-08-06T01:19:21;19.30;66.50
50758;DHT22;36732;47.980;11.652;2023-08-06T01:21:47;19.30;66.40
50758;DHT22;36732;47.980;11.652;2023-08-06T01:24:13;19.30;66.50
50758;DHT22;36732;47.980;11.652;2023-08-06T01:27:11;19.30;66.50
50758;DHT22;36732;47.980;11.652;2023-08-06T01:30:04;19.30;66.50
50758;DHT22;36732;47.980;11.652;2023-08-06T01:32:35;19.30;66.40
50758;DHT22;36732;47.980;11.652;2023-08-06T01:35:05;19.30;66.40
50758;DHT22;36732;47.980;11.652;2023-08-06T01:37:31;19.30;66.40
50758;DHT22;36732;47.980;11.652;2023-08-06T01:39:58;19.20;66.40
50758;DHT22;36732;47.980;11.652;2023-08-06T01:42:23;19.20;66.40
50758;DHT22;36732;47.980;11.652;2023-08-06T01:44:49;19.20;66.40
50758;DHT22;36732;47.980;11.652;2023-08-06T01:47:15;19.20;66.40
50758;DHT22;36732;47.980;11.652;2023-08-06T01:49:40;19.20;66.40
50758;DHT22;36732;47.980;11.652;2023-08-06T01:52:06;19.20;66.40
50758;DHT22;36732;47.980;11.652;2023-08-06T01:54:32;19.20;66.30
50758;DHT22;36732;47.980;11.652;2023-08-06T01:56:58;19.20;66.40
50758;DHT22;36732;47.980;11.652;2023-08-06T01:59:24;19.20;67.00
50758;DHT22;36732;47.980;11.652;2023-08-06T02:01:50;19.20;66.30
50758;DHT22;36732;47.980;11.652;2023-08-06T02:04:15;19.20;66.20
50758;DHT22;36732;47.980;11.652;2023-08-06T02:06:41;19.20;66.80
50758;DHT22;36732;47.980;11.652;2023-08-06T02:09:07;19.20;66.20
50758;DHT22;36732;47.980;11.652;2023-08-06T02:11:32;19.20;66.20
50758;DHT22;36732;47.980;11.652;2023-08-06T02:13:58;19.20;66.10
50758;DHT22;36732;47.980;11.652;2023-08-06T02:16:24;19.20;66.10
50758;DHT22;36732;47.980;11.652;2023-08-06T02:18:49;19.20;66.10
50758;DHT22;36732;47.980;11.652;2023-08-06T02:21:15;19.20;66.10
50758;DHT22;36732;47.980;11.652;2023-08-06T02:23:41;19.10;66.00
50758;DHT22;36732;47.980;11.652;2023-08-06T02:26:07;19.10;66.00
50758;DHT22;36732;47.980;11.652;2023-08-06T02:28:32;19.10;66.00
50758;DHT22;36732;47.980;11.652;2023-08-06T02:30:58;19.10;65.90
50758;DHT22;36732;47.980;11.652;2023-08-06T02:33:24;19.10;65.80
50758;DHT22;36732;47.980;11.652;2023-08-06T02:35:50;19.10;65.80
50758;DHT22;36732;47.980;11.652;2023-08-06T02:38:15;19.10;65.80
50758;DHT22;36732;47.980;11.652;2023-08-06T02:40:47;19.10;65.70
50758;DHT22;36732;47.980;11.652;2023-08-06T02:43:13;19.10;65.60
50758;DHT22;36732;47.980;11.652;2023-08-06T02:45:39;19.10;65.70
50758;DHT22;36732;47.980;11.652;2023-08-06T02:48:05;19.10;65.70
50758;DHT22;36732;47.980;11.652;2023-08-06T02:50:37;19.10;65.70
50758;DHT22;36732;47.980;11.652;2023-08-06T02:53:03;19.10;66.30
50758;DHT22;36732;47.980;11.652;2023-08-06T02:55:29;19.00;65.60
50758;DHT22;36732;47.980;11.652;2023-08-06T02:57:54;19.00;65.60
50758;DHT22;36732;47.980;11.652;2023-08-06T03:00:20;19.00;65.50
50758;DHT22;36732;47.980;11.652;2023-08-06T03:02:46;19.00;65.60
50758;DHT22;36732;47.980;11.652;2023-08-06T03:05:11;19.00;65.50
50758;DHT22;36732;47.980;11.652;2023-08-06T03:07:37;19.00;65.50
50758;DHT22;36732;47.980;11.652;2023-08-06T03:10:03;19.00;65.50
50758;DHT22;36732;47.980;11.652;2023-08-06T03:12:29;19.00;65.40
50758;DHT22;36732;47.980;11.652;2023-08-06T03:14:55;19.00;65.40
50758;DHT22;36732;47.980;11.652;2023-08-06T03:17:20;19.00;65.40
50758;DHT22;36732;47.980;11.652;2023-08-06T03:19:46;19.00;65.30
50758;DHT22;36732;47.980;11.652;2023-08-06T03:22:12;19.00;65.30
50758;DHT22;36732;47.980;11.652;2023-08-06T03:24:37;19.00;65.30
50758;DHT22;36732;47.980;11.652;2023-08-06T03:27:03;19.00;65.20
50758;DHT22;36732;47.980;11.652;2023-08-06T03:29:29;19.00;65.70
50758;DHT22;36732;47.980;11.652;2023-08-06T03:31:55;18.90;64.90
50758;DHT22;36732;47.980;11.652;2023-08-06T03:34:20;18.90;64.90
50758;DHT22;36732;47.980;11.652;2023-08-06T03:36:46;18.90;64.80
50758;DHT22;36732;47.980;11.652;2023-08-06T03:39:12;18.90;64.80
50758;DHT22;36732;47.980;11.652;2023-08-06T03:41:39;18.90;64.80
50758;DHT22;36732;47.980;11.652;2023-08-06T03:44:05;18.90;64.70
50758;DHT22;36732;47.980;11.652;2023-08-06T03:46:31;18.90;64.60
50758;DHT22;36732;47.980;11.652;2023-08-06T03:49:02;18.90;64.60
50758;DHT22;36732;47.980;11.652;2023-08-06T03:51:28;18.90;64.50
50758;DHT22;36732;47.980;11.652;2023-08-06T03:53:54;18.90;64.60
50758;DHT22;36732;47.980;11.652;2023-08-06T03:56:19;18.90;64.60
50758;DHT22;36732;47.980;11.652;2023-08-06T03:58:45;18.80;64.40
50758;DHT22;36732;47.980;11.652;2023-08-06T04:01:11;18.80;64.40
50758;DHT22;36732;47.980;11.652;2023-08-06T04:03:36;18.80;64.40
50758;DHT22;36732;47.980;11.652;2023-08-06T04:06:05;18.80;64.30
50758;DHT22;36732;47.980;11.652;2023-08-06T04:08:33;18.80;64.20
50758;DHT22;36732;47.980;11.652;2023-08-06T04:10:58;18.80;64.30
50758;DHT22;36732;47.980;11.652;2023-08-06T04:13:24;18.80;64.20
50758;DHT22;36732;47.980;11.652;2023-08-06T04:15:50;18.80;64.30
50758;DHT22;36732;47.980;11.652;2023-08-06T04:18:16;18.80;64.20
50758;DHT22;36732;47.980;11.652;2023-08-06T04:20:43;18.80;64.20
50758;DHT22;36732;47.980;11.652;2023-08-06T04:23:10;18.80;64.30
50758;DHT22;36732;47.980;11.652;2023-08-06T04:25:35;18.80;64.30
50758;DHT22;36732;47.980;11.652;2023-08-06T04:28:01;18.70;64.30
50758;DHT22;36732;47.980;11.652;2023-08-06T04:30:27;18.70;64.30
50758;DHT22;36732;47.980;11.652;2023-08-06T04:32:52;18.70;64.50
50758;DHT22;36732;47.980;11.652;2023-08-06T04:35:18;18.70;64.50
50758;DHT22;36732;47.980;11.652;2023-08-06T04:37:44;18.70;64.50
50758;DHT22;36732;47.980;11.652;2023-08-06T04:40:10;18.70;64.50
50758;DHT22;36732;47.980;11.652;2023-08-06T04:42:36;18.70;64.50
50758;DHT22;36732;47.980;11.652;2023-08-06T04:45:02;18.70;64.50
50758;DHT22;36732;47.980;11.652;2023-08-06T04:47:27;18.70;64.50
50758;DHT22;36732;47.980;11.652;2023-08-06T04:49:53;18.70;64.50
50758;DHT22;36732;47.980;11.652;2023-08-06T04:52:19;18.70;64.50
50758;DHT22;36732;47.980;11.652;2023-08-06T04:54:45;18.70;64.50
50758;DHT22;36732;47.980;11.652;2023-08-06T04:57:10;18.70;64.50
50758;DHT22;36732;47.980;11.652;2023-08-06T04:59:36;18.70;64.50
50758;DHT22;36732;47.980;11.652;2023-08-06T05:02:02;18.70;64.60
50758;DHT22;36732;47.980;11.652;2023-08-06T05:04:28;18.70;64.70
50758;DHT22;36732;47.980;11.652;2023-08-06T05:06:53;18.70;64.70
50758;DHT22;36732;47.980;11.652;2023-08-06T05:09:19;18.80;65.00
50758;DHT22;36732;47.980;11.652;2023-08-06T05:11:46;18.70;65.00
50758;DHT22;36732;47.980;11.652;2023-08-06T05:14:12;18.70;65.00
50758;DHT22;36732;47.980;11.652;2023-08-06T05:16:38;18.70;64.90
50758;DHT22;36732;47.980;11.652;2023-08-06T05:19:04;18.80;65.00
50758;DHT22;36732;47.980;11.652;2023-08-06T05:21:30;18.80;65.00
50758;DHT22;36732;47.980;11.652;2023-08-06T05:23:55;18.80;65.00
50758;DHT22;36732;47.980;11.652;2023-08-06T05:26:21;18.80;64.90
50758;DHT22;36732;47.980;11.652;2023-08-06T05:28:47;18.80;64.80
50758;DHT22;36732;47.980;11.652;2023-08-06T05:31:13;18.80;64.80
50758;DHT22;36732;47.980;11.652;2023-08-06T05:33:38;18.80;64.90
50758;DHT22;36732;47.980;11.652;2023-08-06T05:36:04;18.80;65.00
50758;DHT22;36732;47.980;11.652;2023-08-06T05:38:30;18.80;65.10
50758;DHT22;36732;47.980;11.652;2023-08-06T05:40:56;18.80;65.10
50758;DHT22;36732;47.980;11.652;2023-08-06T05:43:22;18.80;65.20
50758;DHT22;36732;47.980;11.652;2023-08-06T05:45:50;18.80;65.20
50758;DHT22;36732;47.980;11.652;2023-08-06T05:48:16;18.80;65.00
50758;DHT22;36732;47.980;11.652;2023-08-06T05:50:41;18.80;65.00
50758;DHT22;36732;47.980;11.652;2023-08-06T05:53:07;18.80;65.00
50758;DHT22;36732;47.980;11.652;2023-08-06T05:55:33;18.80;64.90
50758;DHT22;36732;47.980;11.652;2023-08-06T05:57:59;18.80;65.00
50758;DHT22;36732;47.980;11.652;2023-08-06T06:00:25;18.80;64.90
50758;DHT22;36732;47.980;11.652;2023-08-06T06:02:51;18.80;64.90
50758;DHT22;36732;47.980;11.652;2023-08-06T06:05:16;18.80;64.80
50758;DHT22;36732;47.980;11.652;2023-08-06T06:07:42;18.80;64.70
50758;DHT22;36732;47.980;11.652;2023-08-06T06:10:08;18.80;64.70
50758;DHT22;36732;47.980;11.652;2023-08-06T06:12:34;18.80;64.70
50758;DHT22;36732;47.980;11.652;2023-08-06T06:15:00;18.80;64.80
50758;DHT22;36732;47.980;11.652;2023-08-06T06:17:27;18.80;64.80
50758;DHT22;36732;47.980;11.652;2023-08-06T06:19:52;18.90;64.90
50758;DHT22;36732;47.980;11.652;2023-08-06T06:22:18;18.90;64.80
50758;DHT22;36732;47.980;11.652;2023-08-06T06:24:44;18.90;64.80
50758;DHT22;36732;47.980;11.652;2023-08-06T06:27:10;18.90;64.80
50758;DHT22;36732;47.980;11.652;2023-08-06T06:29:35;18.90;64.90
50758;DHT22;36732;47.980;11.652;2023-08-06T06:32:01;18.90;64.80
50758;DHT22;36732;47.980;11.652;2023-08-06T06:34:27;18.90;64.80
50758;DHT22;36732;47.980;11.652;2023-08-06T06:36:52;18.90;65.00
50758;DHT22;36732;47.980;11.652;2023-08-06T06:39:18;18.90;65.00
50758;DHT22;36732;47.980;11.652;2023-08-06T06:41:44;18.90;65.10
50758;DHT22;36732;47.980;11.652;2023-08-06T06:44:10;18.90;64.70
50758;DHT22;36732;47.980;11.652;2023-08-06T06:46:35;18.90;64.90
50758;DHT22;36732;47.980;11.652;2023-08-06T06:49:01;18.90;64.90
50758;DHT22;36732;47.980;11.652;2023-08-06T06:51:27;19.00;65.00
50758;DHT22;36732;47.980;11.652;2023-08-06T06:53:53;19.00;65.30
50758;DHT22;36732;47.980;11.652;2023-08-06T06:56:18;19.00;65.30
50758;DHT22;36732;47.980;11.652;2023-08-06T06:58:44;19.00;65.30
50758;DHT22;36732;47.980;11.652;2023-08-06T07:01:10;19.00;65.30
50758;DHT22;36732;47.980;11.652;2023-08-06T07:03:37;19.10;65.60
50758;DHT22;36732;47.980;11.652;2023-08-06T07:06:03;19.10;65.20
50758;DHT22;36732;47.980;11.652;2023-08-06T07:08:29;19.10;64.90
50758;DHT22;36732;47.980;11.652;2023-08-06T07:11:05;19.10;65.10
50758;DHT22;36732;47.980;11.652;2023-08-06T07:13:32;19.10;64.60
50758;DHT22;36732;47.980;11.652;2023-08-06T07:15:58;19.20;64.90
50758;DHT22;36732;47.980;11.652;2023-08-06T07:18:24;19.10;64.90
50758;DHT22;36732;47.980;11.652;2023-08-06T07:20:53;19.20;65.10
50758;DHT22;36732;47.980;11.652;2023-08-06T07:23:25;19.10;65.00
50758;DHT22;36732;47.980;11.652;2023-08-06T07:25:51;19.20;65.00
50758;DHT22;36732;47.980;11.652;2023-08-06T07:28:17;19.20;65.40
50758;DHT22;36732;47.980;11.652;2023-08-06T07:30:44;19.20;65.30
50758;DHT22;36732;47.980;11.652;2023-08-06T07:33:10;19.20;65.30
50758;DHT22;36732;47.980;11.652;2023-08-06T07:35:37;19.20;65.30
50758;DHT22;36732;47.980;11.652;2023-08-06T07:38:03;19.20;65.40
50758;DHT22;36732;47.980;11.652;2023-08-06T07:40:29;19.20;65.40
50758;DHT22;36732;47.980;11.652;2023-08-06T07:42:55;19.20;65.30
50758;DHT22;36732;47.980;11.652;2023-08-06T07:45:21;19.20;65.30
50758;DHT22;36732;47.980;11.652;2023-08-06T07:47:46;19.20;65.30
50758;DHT22;36732;47.980;11.652;2023-08-06T07:50:13;19.20;65.40
50758;DHT22;36732;47.980;11.652;2023-08-06T07:52:39;19.20;65.50
50758;DHT22;36732;47.980;11.652;2023-08-06T07:55:05;19.20;65.40
50758;DHT22;36732;47.980;11.652;2023-08-06T07:57:31;19.20;65.50
50758;DHT22;36732;47.980;11.652;2023-08-06T07:59:57;19.20;65.40
50758;DHT22;36732;47.980;11.652;2023-08-06T08:02:23;19.20;65.50
50758;DHT22;36732;47.980;11.652;2023-08-06T08:04:49;19.20;66.20
50758;DHT22;36732;47.980;11.652;2023-08-06T08:07:16;19.20;65.60
50758;DHT22;36732;47.980;11.652;2023-08-06T08:09:41;19.20;65.70
50758;DHT22;36732;47.980;11.652;2023-08-06T08:12:07;19.20;65.60
50758;DHT22;36732;47.980;11.652;2023-08-06T08:14:33;19.10;65.50
50758;DHT22;36732;47.980;11.652;2023-08-06T08:17:05;19.10;65.50
50758;DHT22;36732;47.980;11.652;2023-08-06T08:19:31;19.20;65.80
50758;DHT22;36732;47.980;11.652;2023-08-06T08:21:57;19.10;65.60
50758;DHT22;36732;47.980;11.652;2023-08-06T08:24:23;19.20;65.60
50758;DHT22;36732;47.980;11.652;2023-08-06T08:26:50;19.20;65.60
50758;DHT22;36732;47.980;11.652;2023-08-06T08:29:16;19.20;65.80
50758;DHT22;36732;47.980;11.652;2023-08-06T08:31:42;19.20;65.60
50758;DHT22;36732;47.980;11.652;2023-08-06T08:34:09;19.20;65.30
50758;DHT22;36732;47.980;11.652;2023-08-06T08:36:34;19.20;65.20
50758;DHT22;36732;47.980;11.652;2023-08-06T08:39:00;19.20;64.90
50758;DHT22;36732;47.980;11.652;2023-08-06T08:41:29;19.20;65.00
50758;DHT22;36732;47.980;11.652;2023-08-06T08:43:55;19.30;64.90
50758;DHT22;36732;47.980;11.652;2023-08-06T08:46:22;19.30;65.00
50758;DHT22;36732;47.980;11.652;2023-08-06T08:48:48;19.20;64.90
50758;DHT22;36732;47.980;11.652;2023-08-06T08:51:15;19.30;64.70
50758;DHT22;36732;47.980;11.652;2023-08-06T08:53:44;19.30;64.70
50758;DHT22;36732;47.980;11.652;2023-08-06T08:56:12;19.30;64.40
50758;DHT22;36732;47.980;11.652;2023-08-06T08:58:39;19.30;64.10
50758;DHT22;36732;47.980;11.652;2023-08-06T09:01:06;19.30;64.20
50758;DHT22;36732;47.980;11.652;2023-08-06T09:03:33;19.30;64.00
50758;DHT22;36732;47.980;11.652;2023-08-06T09:06:01;19.30;63.90
50758;DHT22;36732;47.980;11.652;2023-08-06T09:08:33;19.30;63.60
50758;DHT22;36732;47.980;11.652;2023-08-06T09:11:01;19.40;63.30
50758;DHT22;36732;47.980;11.652;2023-08-06T09:13:28;19.40;63.40
50758;DHT22;36732;47.980;11.652;2023-08-06T09:15:53;19.40;63.40
50758;DHT22;36732;47.980;11.652;2023-08-06T09:18:26;19.40;63.30
50758;DHT22;36732;47.980;11.652;2023-08-06T09:20:56;19.40;62.80
50758;DHT22;36732;47.980;11.652;2023-08-06T09:23:28;19.40;62.90
50758;DHT22;36732;47.980;11.652;2023-08-06T09:25:56;19.40;62.70
50758;DHT22;36732;47.980;11.652;2023-08-06T09:28:23;19.40;62.80
50758;DHT22;36732;47.980;11.652;2023-08-06T09:30:50;19.40;62.90
50758;DHT22;36732;47.980;11.652;2023-08-06T09:33:19;19.40;62.70
50758;DHT22;36732;47.980;11.652;2023-08-06T09:35:48;19.40;62.40
50758;DHT22;36732;47.980;11.652;2023-08-06T09:38:14;19.50;62.60
50758;DHT22;36732;47.980;11.652;2023-08-06T09:40:40;19.50;62.70
50758;DHT22;36732;47.980;11.652;2023-08-06T09:43:06;19.40;62.70
50758;DHT22;36732;47.980;11.652;2023-08-06T09:45:34;19.40;62.90
50758;DHT22;36732;47.980;11.652;2023-08-06T09:48:06;19.40;62.70
50758;DHT22;36732;47.980;11.652;2023-08-06T09:50:35;19.40;62.30
50758;DHT22;36732;47.980;11.652;2023-08-06T09:53:03;19.40;62.20
50758;DHT22;36732;47.980;11.652;2023-08-06T09:55:29;19.40;62.50
50758;DHT22;36732;47.980;11.652;2023-08-06T09:57:55;19.40;62.70
50758;DHT22;36732;47.980;11.652;2023-08-06T10:00:22;19.40;62.40
50758;DHT22;36732;47.980;11.652;2023-08-06T10:02:49;19.40;62.60
50758;DHT22;36732;47.980;11.652;2023-08-06T10:05:17;19.40;62.50
50758;DHT22;36732;47.980;11.652;2023-08-06T10:07:44;19.40;62.80
50758;DHT22;36732;47.980;11.652;2023-08-06T10:10:11;19.40;62.70
50758;DHT22;36732;47.980;11.652;2023-08-06T10:12:44;19.40;62.70
50758;DHT22;36732;47.980;11.652;2023-08-06T10:15:16;19.40;63.30
50758;DHT22;36732;47.980;11.652;2023-08-06T10:17:45;19.40;62.80
50758;DHT22;36732;47.980;11.652;2023-08-06T10:20:12;19.40;62.50
50758;DHT22;36732;47.980;11.652;2023-08-06T10:22:43;19.40;62.60
50758;DHT22;36732;47.980;11.652;2023-08-06T10:25:10;19.40;62.10
50758;DHT22;36732;47.980;11.652;2023-08-06T10:27:53;19.40;62.10
50758;DHT22;36732;47.980;11.652;2023-08-06T10:30:31;19.40;61.50
50758;DHT22;36732;47.980;11.652;2023-08-06T10:32:59;19.40;61.40
50758;DHT22;36732;47.980;11.652;2023-08-06T10:35:41;19.40;61.50
50758;DHT22;36732;47.980;11.652;2023-08-06T10:38:16;19.50;61.30
50758;DHT22;36732;47.980;11.652;2023-08-06T10:43:31;19.50;60.80
50758;DHT22;36732;47.980;11.652;2023-08-06T10:46:00;19.50;61.10
50758;DHT22;36732;47.980;11.652;2023-08-06T10:48:41;19.50;61.10
50758;DHT22;36732;47.980;11.652;2023-08-06T10:51:12;19.50;61.00
50758;DHT22;36732;47.980;11.652;2023-08-06T10:53:42;19.50;60.80
50758;DHT22;36732;47.980;11.652;2023-08-06T10:56:22;19.50;60.90
50758;DHT22;36732;47.980;11.652;2023-08-06T10:58:51;19.50;60.70
50758;DHT22;36732;47.980;11.652;2023-08-06T11:01:18;19.50;60.90
50758;DHT22;36732;47.980;11.652;2023-08-06T11:03:46;19.50;60.60
50758;DHT22;36732;47.980;11.652;2023-08-06T11:06:17;19.50;60.80
50758;DHT22;36732;47.980;11.652;2023-08-06T11:08:52;19.50;60.60
50758;DHT22;36732;47.980;11.652;2023-08-06T11:11:19;19.50;60.50
50758;DHT22;36732;47.980;11.652;2023-08-06T11:13:47;19.60;60.60
50758;DHT22;36732;47.980;11.652;2023-08-06T11:16:18;19.60;60.60
50758;DHT22;36732;47.980;11.652;2023-08-06T11:18:45;19.60;60.10
50758;DHT22;36732;47.980;11.652;2023-08-06T11:21:11;19.60;60.60
50758;DHT22;36732;47.980;11.652;2023-08-06T11:23:38;19.60;60.50
50758;DHT22;36732;47.980;11.652;2023-08-06T11:26:04;19.60;60.60
50758;DHT22;36732;47.980;11.652;2023-08-06T11:28:30;19.60;60.40
50758;DHT22;36732;47.980;11.652;2023-08-06T11:30:56;19.60;60.30
50758;DHT22;36732;47.980;11.652;2023-08-06T11:33:24;19.60;60.60
50758;DHT22;36732;47.980;11.652;2023-08-06T11:35:57;19.60;60.20
50758;DHT22;36732;47.980;11.652;2023-08-06T11:38:28;19.60;60.10
50758;DHT22;36732;47.980;11.652;2023-08-06T11:40:54;19.60;60.20
50758;DHT22;36732;47.980;11.652;2023-08-06T11:43:21;19.60;60.30
50758;DHT22;36732;47.980;11.652;2023-08-06T11:45:51;19.60;60.40
50758;DHT22;36732;47.980;11.652;2023-08-06T11:48:19;19.60;60.60
50758;DHT22;36732;47.980;11.652;2023-08-06T11:50:45;19.60;60.90
50758;DHT22;36732;47.980;11.652;2023-08-06T11:53:14;19.70;61.00
50758;DHT22;36732;47.980;11.652;2023-08-06T11:55:41;19.60;61.20
50758;DHT22;36732;47.980;11.652;2023-08-06T11:58:08;19.60;61.40
50758;DHT22;36732;47.980;11.652;2023-08-06T12:00:36;19.60;60.90
50758;DHT22;36732;47.980;11.652;2023-08-06T12:03:04;19.60;60.90
50758;DHT22;36732;47.980;11.652;2023-08-06T12:05:30;19.60;60.70
50758;DHT22;36732;47.980;11.652;2023-08-06T12:07:59;19.60;61.00
50758;DHT22;36732;47.980;11.652;2023-08-06T12:10:29;19.60;61.10
50758;DHT22;36732;47.980;11.652;2023-08-06T12:12:55;19.60;61.10
50758;DHT22;36732;47.980;11.652;2023-08-06T12:15:22;19.60;61.00
50758;DHT22;36732;47.980;11.652;2023-08-06T12:17:47;19.60;61.10
50758;DHT22;36732;47.980;11.652;2023-08-06T12:20:13;19.60;61.00
50758;DHT22;36732;47.980;11.652;2023-08-06T12:22:39;19.60;61.10
50758;DHT22;36732;47.980;11.652;2023-08-06T12:25:10;19.60;60.70
50758;DHT22;36732;47.980;11.652;2023-08-06T12:27:39;19.60;60.20
50758;DHT22;36732;47.980;11.652;2023-08-06T12:30:08;19.60;60.30
50758;DHT22;36732;47.980;11.652;2023-08-06T12:32:35;19.60;60.20
50758;DHT22;36732;47.980;11.652;2023-08-06T12:35:01;19.60;60.30
50758;DHT22;36732;47.980;11.652;2023-08-06T12:37:28;19.60;60.50
50758;DHT22;36732;47.980;11.652;2023-08-06T12:39:54;19.60;60.20
50758;DHT22;36732;47.980;11.652;2023-08-06T12:42:20;19.60;60.40
50758;DHT22;36732;47.980;11.652;2023-08-06T12:44:45;19.60;60.50
50758;DHT22;36732;47.980;11.652;2023-08-06T12:47:12;19.60;60.40
50758;DHT22;36732;47.980;11.652;2023-08-06T12:49:37;19.60;60.00
50758;DHT22;36732;47.980;11.652;2023-08-06T12:52:03;19.60;60.10
50758;DHT22;36732;47.980;11.652;2023-08-06T12:54:31;19.60;60.20
50758;DHT22;36732;47.980;11.652;2023-08-06T12:57:02;19.60;60.10
50758;DHT22;36732;47.980;11.652;2023-08-06T12:59:28;19.60;60.30
50758;DHT22;36732;47.980;11.652;2023-08-06T13:01:54;19.60;60.40
50758;DHT22;36732;47.980;11.652;2023-08-06T13:04:19;19.70;60.80
50758;DHT22;36732;47.980;11.652;2023-08-06T13:06:45;19.70;60.80
50758;DHT22;36732;47.980;11.652;2023-08-06T13:09:12;19.60;61.10
50758;DHT22;36732;47.980;11.652;2023-08-06T13:11:39;19.60;61.30
50758;DHT22;36732;47.980;11.652;2023-08-06T13:14:10;19.60;61.40
50758;DHT22;36732;47.980;11.652;2023-08-06T13:16:39;19.70;62.30
50758;DHT22;36732;47.980;11.652;2023-08-06T13:19:06;19.60;62.40
50758;DHT22;36732;47.980;11.652;2023-08-06T13:21:34;19.60;61.80
50758;DHT22;36732;47.980;11.652;2023-08-06T13:24:20;19.60;61.80
50758;DHT22;36732;47.980;11.652;2023-08-06T13:26:46;19.60;61.80
50758;DHT22;36732;47.980;11.652;2023-08-06T13:29:12;19.60;61.70
50758;DHT22;36732;47.980;11.652;2023-08-06T13:31:38;19.60;62.00
50758;DHT22;36732;47.980;11.652;2023-08-06T13:34:04;19.50;62.20
50758;DHT22;36732;47.980;11.652;2023-08-06T13:36:30;19.60;62.40
50758;DHT22;36732;47.980;11.652;2023-08-06T13:38:56;19.50;62.10
50758;DHT22;36732;47.980;11.652;2023-08-06T13:41:22;19.50;62.20
50758;DHT22;36732;47.980;11.652;2023-08-06T13:43:48;19.50;62.20
50758;DHT22;36732;47.980;11.652;2023-08-06T13:46:14;19.50;62.20
50758;DHT22;36732;47.980;11.652;2023-08-06T13:48:46;19.50;62.30
50758;DHT22;36732;47.980;11.652;2023-08-06T13:51:13;19.40;62.40
50758;DHT22;36732;47.980;11.652;2023-08-06T13:53:40;19.40;62.70
50758;DHT22;36732;47.980;11.652;2023-08-06T13:56:06;19.40;62.80
50758;DHT22;36732;47.980;11.652;2023-08-06T13:58:35;19.40;62.90
50758;DHT22;36732;47.980;11.652;2023-08-06T14:01:00;19.40;62.70
50758;DHT22;36732;47.980;11.652;2023-08-06T14:03:26;19.40;62.60
50758;DHT22;36732;47.980;11.652;2023-08-06T14:05:52;19.30;62.60
50758;DHT22;36732;47.980;11.652;2023-08-06T14:08:20;19.30;62.80
50758;DHT22;36732;47.980;11.652;2023-08-06T14:10:46;19.30;63.00
50758;DHT22;36732;47.980;11.652;2023-08-06T14:13:12;19.30;63.10
50758;DHT22;36732;47.980;11.652;2023-08-06T14:15:38;19.30;63.20
50758;DHT22;36732;47.980;11.652;2023-08-06T14:18:07;19.20;63.40
50758;DHT22;36732;47.980;11.652;2023-08-06T14:20:36;19.20;63.50
50758;DHT22;36732;47.980;11.652;2023-08-06T14:23:02;19.30;63.70
50758;DHT22;36732;47.980;11.652;2023-08-06T14:25:27;19.30;63.60
50758;DHT22;36732;47.980;11.652;2023-08-06T14:27:53;19.30;63.50
50758;DHT22;36732;47.980;11.652;2023-08-06T14:30:19;19.30;63.60
50758;DHT22;36732;47.980;11.652;2023-08-06T14:32:45;19.20;63.40
50758;DHT22;36732;47.980;11.652;2023-08-06T14:35:11;19.20;63.30
50758;DHT22;36732;47.980;11.652;2023-08-06T14:37:36;19.20;63.30
50758;DHT22;36732;47.980;11.652;2023-08-06T14:40:02;19.20;63.30
50758;DHT22;36732;47.980;11.652;2023-08-06T14:42:29;19.20;63.40
50758;DHT22;36732;47.980;11.652;2023-08-06T14:44:54;19.30;63.50
50758;DHT22;36732;47.980;11.652;2023-08-06T14:47:20;19.20;63.30
50758;DHT22;36732;47.980;11.652;2023-08-06T14:49:46;19.20;63.20
50758;DHT22;36732;47.980;11.652;2023-08-06T14:52:13;19.20;63.20
50758;DHT22;36732;47.980;11.652;2023-08-06T14:54:39;19.20;63.20
50758;DHT22;36732;47.980;11.652;2023-08-06T14:57:04;19.20;63.20
50758;DHT22;36732;47.980;11.652;2023-08-06T14:59:30;19.20;63.20
50758;DHT22;36732;47.980;11.652;2023-08-06T15:01:56;19.20;63.20
50758;DHT22;36732;47.980;11.652;2023-08-06T15:04:22;19.20;63.10
50758;DHT22;36732;47.980;11.652;2023-08-06T15:06:48;19.10;63.00
50758;DHT22;36732;47.980;11.652;2023-08-06T15:09:14;19.20;63.10
50758;DHT22;36732;47.980;11.652;2023-08-06T15:11:40;19.10;63.10
50758;DHT22;36732;47.980;11.652;2023-08-06T15:14:06;19.10;62.90
50758;DHT22;36732;47.980;11.652;2023-08-06T15:16:33;19.10;62.90